createdAt,value
2022-10-02T00:01:55.749Z,19.60
2022-10-02T00:07:03.550Z,19.30
2022-10-02T00:12:09.340Z,19.50
2022-10-02T00:17:38.330Z,19.50
2022-10-02T00:22:49.593Z,19.50
2022-10-02T00:28:14.220Z,19.50
2022-10-02T00:33:38.724Z,19.50
2022-10-02T00:38:52.046Z,19.50
2022-10-02T00:43:57.432Z,19.30
2022-10-02T00:49:19.430Z,19.50
2022-10-02T00:54:46.383Z,19.50
2022-10-02T01:00:10.483Z,19.40
2022-10-02T01:05:13.644Z,19.30
2022-10-02T01:10:16.391Z,19.40
2022-10-02T01:15:28.395Z,18.90
2022-10-02T01:20:38.532Z,19.10
2022-10-02T01:25:41.112Z,19.40
2022-10-02T01:30:47.792Z,19.20
2022-10-02T01:35:50.263Z,19.30
2022-10-02T01:40:52.776Z,19.20
2022-10-02T01:46:14.030Z,19.20
2022-10-02T01:51:35.710Z,19.10
2022-10-02T01:56:51.131Z,19.10
2022-10-02T02:02:16.782Z,18.90
2022-10-02T02:07:35.868Z,18.90
2022-10-02T02:12:49.955Z,18.90
2022-10-02T02:17:55.046Z,18.90
2022-10-02T02:23:06.475Z,18.70
2022-10-02T02:28:12.587Z,19.00
2022-10-02T02:33:19.404Z,18.90
2022-10-02T02:38:36.444Z,18.30
2022-10-02T02:43:57.569Z,18.70
2022-10-02T02:49:11.866Z,18.90
2022-10-02T02:54:20.452Z,19.00
2022-10-02T02:59:27.035Z,18.80
2022-10-02T03:04:29.485Z,19.00
2022-10-02T03:09:33.620Z,18.90
2022-10-02T03:14:42.102Z,18.90
2022-10-02T03:19:51.544Z,19.00
2022-10-02T03:25:22.836Z,19.10
2022-10-02T03:30:26.227Z,18.90
2022-10-02T03:35:30.293Z,18.70
2022-10-02T03:40:32.904Z,18.80
2022-10-02T03:45:52.027Z,18.90
2022-10-02T03:50:54.719Z,18.90
2022-10-02T03:56:10.176Z,19.10
2022-10-02T04:01:19.965Z,18.80
2022-10-02T04:06:29.441Z,18.60
2022-10-02T04:11:47.130Z,18.70
2022-10-02T04:16:57.857Z,19.00
2022-10-02T04:22:07.626Z,18.90
2022-10-02T04:27:20.878Z,18.90
2022-10-02T04:32:27.258Z,18.90
2022-10-02T04:37:39.169Z,18.90
2022-10-02T04:43:01.548Z,18.60
2022-10-02T04:48:47.910Z,18.80
2022-10-02T04:54:27.932Z,18.90
2022-10-02T04:59:45.252Z,19.10
2022-10-02T05:05:06.129Z,19.00
2022-10-02T05:10:44.910Z,18.90
2022-10-02T05:15:56.328Z,18.70
2022-10-02T05:21:17.744Z,18.90
2022-10-02T05:26:31.703Z,18.70
2022-10-02T05:32:22.602Z,18.80
2022-10-02T05:37:52.777Z,18.80
2022-10-02T05:43:08.469Z,18.60
2022-10-02T05:48:37.529Z,18.80
2022-10-02T05:53:57.535Z,18.90
2022-10-02T05:59:02.661Z,19.00
2022-10-02T06:04:44.163Z,18.70
2022-10-02T06:10:01.008Z,18.60
2022-10-02T06:15:17.202Z,18.80
2022-10-02T06:20:22.178Z,18.90
2022-10-02T06:25:30.716Z,18.50
2022-10-02T06:30:37.513Z,18.80
2022-10-02T06:35:53.581Z,18.80
2022-10-02T06:41:09.282Z,18.70
2022-10-02T06:46:22.952Z,18.90
2022-10-02T06:51:52.443Z,19.00
2022-10-02T06:57:10.702Z,19.00
2022-10-02T07:02:32.725Z,18.80
2022-10-02T07:08:10.362Z,18.70
2022-10-02T07:13:12.809Z,19.00
2022-10-02T07:18:33.693Z,18.70
2022-10-02T07:23:42.215Z,18.70
2022-10-02T07:29:20.103Z,18.70
2022-10-02T07:34:37.801Z,18.70
2022-10-02T07:39:45.971Z,18.90
2022-10-02T07:45:03.368Z,18.40
2022-10-02T07:50:47.848Z,18.60
2022-10-02T07:55:53.800Z,18.60
2022-10-02T08:01:02.385Z,18.90
2022-10-02T08:06:06.559Z,18.90
2022-10-02T08:11:21.363Z,18.70
2022-10-02T08:16:27.537Z,18.90
2022-10-02T08:21:34.275Z,19.10
2022-10-02T08:26:57.845Z,19.00
2022-10-02T08:32:00.798Z,19.10
2022-10-02T08:37:18.239Z,19.10
2022-10-02T08:42:40.085Z,19.00
2022-10-02T08:47:59.875Z,19.20
2022-10-02T08:53:02.299Z,18.90
2022-10-02T08:58:23.204Z,18.70
2022-10-02T09:04:26.051Z,18.90
2022-10-02T09:09:44.500Z,18.90
2022-10-02T09:14:53.535Z,19.00
2022-10-02T09:20:34.909Z,18.70
2022-10-02T09:26:16.162Z,18.90
2022-10-02T09:32:06.928Z,18.90
2022-10-02T09:37:30.772Z,18.90
2022-10-02T09:43:00.302Z,19.10
2022-10-02T09:48:43.234Z,19.10
2022-10-02T09:54:27.058Z,19.10
2022-10-02T09:59:47.175Z,19.10
2022-10-02T10:05:05.205Z,18.90
2022-10-02T10:10:40.896Z,18.90
2022-10-02T10:16:11.669Z,19.00
2022-10-02T10:21:59.194Z,19.00
2022-10-02T10:27:07.959Z,18.50
2022-10-02T10:32:49.505Z,18.80
2022-10-02T10:38:14.351Z,18.70
2022-10-02T10:44:03.342Z,18.70
2022-10-02T10:49:42.968Z,18.50
2022-10-02T10:55:13.211Z,18.60
2022-10-02T11:00:21.646Z,18.90
2022-10-02T11:05:54.846Z,18.70
2022-10-02T11:11:09.348Z,18.70
2022-10-02T11:20:37.143Z,17.90
2022-10-02T11:25:59.554Z,17.90
2022-10-02T11:31:23.303Z,18.00
2022-10-02T11:37:01.029Z,18.60
2022-10-02T11:42:23.659Z,18.90
2022-10-02T11:48:00.132Z,18.70
2022-10-02T11:53:25.218Z,18.50
2022-10-02T11:58:27.605Z,18.60
2022-10-02T12:03:39.568Z,18.70
2022-10-02T12:09:07.968Z,18.80
2022-10-02T12:14:32.680Z,18.90
2022-10-02T12:20:07.293Z,18.60
2022-10-02T12:25:42.803Z,18.80
2022-10-02T12:42:14.408Z,20.30
2022-10-02T12:47:36.034Z,20.10
2022-10-02T13:15:37.460Z,19.80
2022-10-02T13:20:51.688Z,18.30
2022-10-02T13:32:31.566Z,18.60
2022-10-02T13:38:09.590Z,18.50
2022-10-02T13:43:33.283Z,18.50
2022-10-02T14:12:21.517Z,18.30
2022-10-02T14:17:49.949Z,18.50
2022-10-02T14:23:14.231Z,18.30
2022-10-02T14:28:34.886Z,18.30
2022-10-02T14:34:26.324Z,18.40
2022-10-02T14:39:44.943Z,18.20
2022-10-02T14:45:16.711Z,18.40
2022-10-02T15:01:49.236Z,18.40
2022-10-02T15:07:15.408Z,18.40
2022-10-02T15:12:37.766Z,18.50
2022-10-02T15:18:40.888Z,18.30
2022-10-02T15:23:50.590Z,18.10
2022-10-02T15:29:24.319Z,16.10
2022-10-02T15:34:43.778Z,14.60
2022-10-02T15:40:24.870Z,14.70
2022-10-02T15:45:48.577Z,14.10
2022-10-02T15:50:54.431Z,13.80
2022-10-02T15:56:24.194Z,14.00
2022-10-02T16:01:49.373Z,15.80
2022-10-02T16:07:27.890Z,17.20
2022-10-02T16:12:33.354Z,17.90
2022-10-02T16:17:38.972Z,18.20
2022-10-02T16:23:20.422Z,18.20
2022-10-02T16:28:54.852Z,18.20
2022-10-02T16:34:20.491Z,17.50
2022-10-02T16:39:39.885Z,17.40
2022-10-02T16:44:58.141Z,14.20
2022-10-02T16:50:17.877Z,13.10
2022-10-02T16:55:32.512Z,12.60
2022-10-02T17:00:50.968Z,12.30
2022-10-02T17:06:07.630Z,11.90
2022-10-02T17:11:45.964Z,11.90
2022-10-02T17:16:55.899Z,11.90
2022-10-02T17:22:11.827Z,12.00
2022-10-02T17:27:35.704Z,12.10
2022-10-02T17:32:50.293Z,11.70
2022-10-02T17:38:00.429Z,11.30
2022-10-02T17:43:24.743Z,11.00
2022-10-02T17:48:27.249Z,10.70
2022-10-02T17:54:11.426Z,10.40
2022-10-02T17:59:28.164Z,10.20
2022-10-02T18:05:08.300Z,10.00
2022-10-02T18:10:27.166Z,9.70
2022-10-02T18:15:38.156Z,9.40
2022-10-02T18:20:57.459Z,9.10
2022-10-02T18:26:30.479Z,8.90
2022-10-02T18:31:54.714Z,12.80
2022-10-02T18:37:48.404Z,14.90
2022-10-02T18:43:20.121Z,15.90
2022-10-02T18:54:49.401Z,17.20
2022-10-02T19:00:10.650Z,17.60
2022-10-02T19:11:59.025Z,17.90
2022-10-02T19:23:02.032Z,17.80
2022-10-02T19:28:05.458Z,18.00
